Emu Arrow — C6OR4 — position and weather

sailwx.info

Track history (hours):
 
Tides and Currents Weather Stations Pressure Air Temp Water Temp Dewpoint Dewpoint Depression Visibility Wind Speed Wind Dir Waves Ship Positions

Emu Arrow

Last reported at 2016-May-13 18:31 UTC. Time now 2016-May-30 03:05 UTC.
Position S 26°56' E 153°49'.
Warning: this ship's position is 16 days out of date.

Length 200 m; draft 11.1 m.

Type: Cargo ship. MMSI: 309805000.

Date/timePositionNaut miles runAvg speedWind from/ knotsBaromVisibWave heightAir tempDewpointWater temp
2016-May-13 18:31S 26°56' E 153°49'3511.0
2016-May-13 15:20S 27°31' E 153°51'910.9
2016-May-13 14:33S 27°39' E 153°51'1110.6
2016-May-13 13:33S 27°50' E 153°51'1110.8
2016-May-13 12:30S 28°01' E 153°52'27510.2
2016-May-12 09:33S 32°29' E 152°39'1312.5
2016-May-12 08:32S 32°38' E 152°28'1212.5
2016-May-12 07:33S 32°46' E 152°17'1212.2
2016-May-12 06:33S 32°52' E 152°05'1212.4
2016-May-12 05:33S 32°56' E 151°51'5 4.8
2016-May-12 04:33S 32°54' E 151°46'1 1.2
2016-May-12 03:31S 32°55' E 151°46'0 0.0
2016-May-12 02:31S 32°55' E 151°46'0 0.0
2016-May-12 01:31S 32°55' E 151°46'0 0.0
2016-May-12 00:31S 32°55' E 151°46'0 0.0
2016-May-11 23:31S 32°55' E 151°46'0 0.0
2016-May-11 22:31S 32°55' E 151°46'0 0.0
2016-May-11 21:31S 32°55' E 151°46'0 0.0
2016-May-11 20:31S 32°55' E 151°46'0 0.0
2016-May-11 19:31S 32°55' E 151°46'0 0.0
2016-May-11 18:31S 32°55' E 151°46'0 0.0
2016-May-11 17:31S 32°55' E 151°46'0 0.0
2016-May-11 16:28S 32°55' E 151°46'0 0.0
2016-May-11 15:31S 32°55' E 151°46'0 0.0
2016-May-11 14:31S 32°55' E 151°46'0 0.0
2016-May-11 13:31S 32°55' E 151°46'0 0.0
2016-May-11 12:31S 32°55' E 151°46'0 0.0
2016-May-11 11:31S 32°55' E 151°46'0 0.0
2016-May-11 10:31S 32°55' E 151°46'0 0.0
2016-May-11 09:31S 32°55' E 151°46'0 0.0
2016-May-11 08:28S 32°55' E 151°46'0 0.0
2016-May-11 07:31S 32°55' E 151°46'3 2.8
2016-May-11 06:33S 32°55' E 151°49'7 6.7
2016-May-11 05:33S 33°01' E 151°54'8 8.2
2016-May-11 04:33S 33°06' E 152°01'9 8.5
2016-May-11 03:28S 33°15' E 151°59'20311.9
2016-May-10 10:25S 36°27' E 150°41'1211.2
2016-May-10 09:20S 36°39' E 150°37'911.0
2016-May-10 08:33S 36°47' E 150°34'1111.5
2016-May-10 07:33S 36°58' E 150°30'1211.5
2016-May-10 06:33S 37°09' E 150°26'1212.2
2016-May-10 05:33S 37°21' E 150°22'1312.5
2016-May-10 04:33S 37°33' E 150°17'1212.1
2016-May-10 03:33S 37°44' E 150°12'1212.5
2016-May-10 02:33S 37°52' E 150°00'1212.4
2016-May-10 01:33S 38°01' E 149°48'1312.6
2016-May-10 00:33S 38°09' E 149°36'1212.4
2016-May-09 23:33S 38°17' E 149°24'1312.9
2016-May-09 22:33S 38°25' E 149°12'9111.2
2016-May-09 14:26S 39°24' E 147°43'9 9.9
2016-May-09 13:33S 39°29' E 147°34'1010.0
2016-May-09 12:33S 39°36' E 147°24'1110.7
2016-May-09 11:31S 39°43' E 147°13'1110.9
2016-May-09 10:32S 39°53' E 147°08'6011.9
2016-May-09 05:33S 40°51' E 146°47'1111.4
2016-May-09 04:33S 41°02' E 146°45'8 8.3
2016-May-09 03:32S 41°09' E 146°52'0 0.1
2016-May-09 00:32S 41°08' E 146°52'0 0.0
2016-May-08 23:29S 41°08' E 146°52'0 0.0
2016-May-08 21:32S 41°08' E 146°52'0 0.0
2016-May-08 17:26S 41°08' E 146°52'0 0.0
2016-May-08 15:29S 41°08' E 146°52'0 0.0
2016-May-08 14:29S 41°08' E 146°52'0 0.0
2016-May-08 13:14S 41°08' E 146°52'0 0.0
2016-May-08 12:26S 41°08' E 146°52'0 0.0
2016-May-08 08:17S 41°08' E 146°52'0 0.0
2016-May-08 06:32S 41°08' E 146°52'0 0.0
2016-May-08 04:08S 41°08' E 146°52'0 0.0
2016-May-08 03:23S 41°08' E 146°52'0 0.0
2016-May-08 02:26S 41°08' E 146°52'0 0.0
2016-May-08 00:29S 41°08' E 146°52'0 0.0
2016-May-07 22:29S 41°08' E 146°52'0 0.0
2016-May-07 21:32S 41°08' E 146°52'0 0.0
2016-May-07 20:29S 41°08' E 146°52'0 0.0
2016-May-07 19:32S 41°08' E 146°52'0 0.0
2016-May-07 18:29S 41°08' E 146°52'0 0.0
2016-May-07 17:05S 41°08' E 146°52'0 0.0
2016-May-07 16:20S 41°08' E 146°52'0 0.0
2016-May-07 13:23S 41°08' E 146°52'0 0.0
2016-May-07 12:26S 41°08' E 146°52'0 0.0
2016-May-07 11:26S 41°08' E 146°52'0 0.0
2016-May-07 10:29S 41°08' E 146°52'0 0.0
2016-May-07 09:26S 41°08' E 146°52'0 0.0
2016-May-07 08:26S 41°08' E 146°52'0 0.0
2016-May-07 07:29S 41°08' E 146°52'0 0.0
2016-May-07 05:20S 41°08' E 146°52'0 0.0
2016-May-07 04:29S 41°08' E 146°52'0 0.0
2016-May-07 03:32S 41°08' E 146°52'2 2.3
2016-May-07 02:33S 41°07' E 146°49'10 9.8
2016-May-07 01:33S 40°59' E 146°42'1110.5
2016-May-07 00:33S 40°52' E 146°32'1312.5
2016-May-06 23:30S 40°44' E 146°18'1212.7
2016-May-06 22:33S 40°37' E 146°05'1612.6
2016-May-06 21:16S 40°27' E 145°49'  
Track history (hours):
 
Tides and Currents Weather Stations Pressure Air Temp Water Temp Dewpoint Dewpoint Depression Visibility Wind Speed Wind Dir Waves Ship Positions

Emu Arrow

Last reported at 2016-May-13 18:31 UTC. Time now 2016-May-30 03:05 UTC.
Position S 26°56' E 153°49'.
Warning: this ship's position is 16 days out of date.

Length 200 m; draft 11.1 m.

Type: Cargo ship. MMSI: 309805000.

Date/timePositionNaut miles runAvg speedWind from/ knotsBaromVisibWave heightAir tempDewpointWater temp
2016-May-13 18:31S 26°56' E 153°49'3511.0
2016-May-13 15:20S 27°31' E 153°51'910.9
2016-May-13 14:33S 27°39' E 153°51'1110.6
2016-May-13 13:33S 27°50' E 153°51'1110.8
2016-May-13 12:30S 28°01' E 153°52'27510.2
2016-May-12 09:33S 32°29' E 152°39'1312.5
2016-May-12 08:32S 32°38' E 152°28'1212.5
2016-May-12 07:33S 32°46' E 152°17'1212.2
2016-May-12 06:33S 32°52' E 152°05'1212.4
2016-May-12 05:33S 32°56' E 151°51'5 4.8
2016-May-12 04:33S 32°54' E 151°46'1 1.2
2016-May-12 03:31S 32°55' E 151°46'0 0.0
2016-May-12 02:31S 32°55' E 151°46'0 0.0
2016-May-12 01:31S 32°55' E 151°46'0 0.0
2016-May-12 00:31S 32°55' E 151°46'0 0.0
2016-May-11 23:31S 32°55' E 151°46'0 0.0
2016-May-11 22:31S 32°55' E 151°46'0 0.0
2016-May-11 21:31S 32°55' E 151°46'0 0.0
2016-May-11 20:31S 32°55' E 151°46'0 0.0
2016-May-11 19:31S 32°55' E 151°46'0 0.0
2016-May-11 18:31S 32°55' E 151°46'0 0.0
2016-May-11 17:31S 32°55' E 151°46'0 0.0
2016-May-11 16:28S 32°55' E 151°46'0 0.0
2016-May-11 15:31S 32°55' E 151°46'0 0.0
2016-May-11 14:31S 32°55' E 151°46'0 0.0
2016-May-11 13:31S 32°55' E 151°46'0 0.0
2016-May-11 12:31S 32°55' E 151°46'0 0.0
2016-May-11 11:31S 32°55' E 151°46'0 0.0
2016-May-11 10:31S 32°55' E 151°46'0 0.0
2016-May-11 09:31S 32°55' E 151°46'0 0.0
2016-May-11 08:28S 32°55' E 151°46'0 0.0
2016-May-11 07:31S 32°55' E 151°46'3 2.8
2016-May-11 06:33S 32°55' E 151°49'7 6.7
2016-May-11 05:33S 33°01' E 151°54'8 8.2
2016-May-11 04:33S 33°06' E 152°01'9 8.5
2016-May-11 03:28S 33°15' E 151°59'20311.9
2016-May-10 10:25S 36°27' E 150°41'1211.2
2016-May-10 09:20S 36°39' E 150°37'911.0
2016-May-10 08:33S 36°47' E 150°34'1111.5
2016-May-10 07:33S 36°58' E 150°30'1211.5
2016-May-10 06:33S 37°09' E 150°26'1212.2
2016-May-10 05:33S 37°21' E 150°22'1312.5
2016-May-10 04:33S 37°33' E 150°17'1212.1
2016-May-10 03:33S 37°44' E 150°12'1212.5
2016-May-10 02:33S 37°52' E 150°00'1212.4
2016-May-10 01:33S 38°01' E 149°48'1312.6
2016-May-10 00:33S 38°09' E 149°36'1212.4
2016-May-09 23:33S 38°17' E 149°24'1312.9
2016-May-09 22:33S 38°25' E 149°12'9111.2
2016-May-09 14:26S 39°24' E 147°43'9 9.9
2016-May-09 13:33S 39°29' E 147°34'1010.0
2016-May-09 12:33S 39°36' E 147°24'1110.7
2016-May-09 11:31S 39°43' E 147°13'1110.9
2016-May-09 10:32S 39°53' E 147°08'6011.9
2016-May-09 05:33S 40°51' E 146°47'1111.4
2016-May-09 04:33S 41°02' E 146°45'8 8.3
2016-May-09 03:32S 41°09' E 146°52'0 0.1
2016-May-09 00:32S 41°08' E 146°52'0 0.0
2016-May-08 23:29S 41°08' E 146°52'0 0.0
2016-May-08 21:32S 41°08' E 146°52'0 0.0
2016-May-08 17:26S 41°08' E 146°52'0 0.0
2016-May-08 15:29S 41°08' E 146°52'0 0.0
2016-May-08 14:29S 41°08' E 146°52'0 0.0
2016-May-08 13:14S 41°08' E 146°52'0 0.0
2016-May-08 12:26S 41°08' E 146°52'0 0.0
2016-May-08 08:17S 41°08' E 146°52'0 0.0
2016-May-08 06:32S 41°08' E 146°52'0 0.0
2016-May-08 04:08S 41°08' E 146°52'0 0.0
2016-May-08 03:23S 41°08' E 146°52'0 0.0
2016-May-08 02:26S 41°08' E 146°52'0 0.0
2016-May-08 00:29S 41°08' E 146°52'0 0.0
2016-May-07 22:29S 41°08' E 146°52'0 0.0
2016-May-07 21:32S 41°08' E 146°52'0 0.0
2016-May-07 20:29S 41°08' E 146°52'0 0.0
2016-May-07 19:32S 41°08' E 146°52'0 0.0
2016-May-07 18:29S 41°08' E 146°52'0 0.0
2016-May-07 17:05S 41°08' E 146°52'0 0.0
2016-May-07 16:20S 41°08' E 146°52'0 0.0
2016-May-07 13:23S 41°08' E 146°52'0 0.0
2016-May-07 12:26S 41°08' E 146°52'0 0.0
2016-May-07 11:26S 41°08' E 146°52'0 0.0
2016-May-07 10:29S 41°08' E 146°52'0 0.0
2016-May-07 09:26S 41°08' E 146°52'0 0.0
2016-May-07 08:26S 41°08' E 146°52'0 0.0
2016-May-07 07:29S 41°08' E 146°52'0 0.0
2016-May-07 05:20S 41°08' E 146°52'0 0.0
2016-May-07 04:29S 41°08' E 146°52'0 0.0
2016-May-07 03:32S 41°08' E 146°52'2 2.3
2016-May-07 02:33S 41°07' E 146°49'10 9.8
2016-May-07 01:33S 40°59' E 146°42'1110.5
2016-May-07 00:33S 40°52' E 146°32'1312.5
2016-May-06 23:30S 40°44' E 146°18'1212.7
2016-May-06 22:33S 40°37' E 146°05'1612.6
2016-May-06 21:16S 40°27' E 145°49'  

Dump ship's entire track history